createdAt,value
2019-05-15T00:00:53.339Z,9.10
2019-05-15T00:05:54.902Z,8.47
2019-05-15T00:10:58.087Z,14.00
2019-05-15T00:15:59.948Z,8.27
2019-05-15T00:21:01.447Z,10.00
2019-05-15T00:26:03.028Z,8.67
2019-05-15T00:31:04.568Z,7.13
2019-05-15T00:36:08.477Z,14.07
2019-05-15T00:41:09.737Z,11.23
2019-05-15T00:46:11.233Z,9.87
2019-05-15T00:51:14.736Z,9.43
2019-05-15T00:56:16.225Z,7.10
2019-05-15T01:01:19.288Z,9.53
2019-05-15T01:06:20.890Z,7.97
2019-05-15T01:11:22.310Z,11.93
2019-05-15T01:16:23.630Z,9.83
2019-05-15T01:21:25.167Z,10.57
2019-05-15T01:26:28.227Z,7.73
2019-05-15T01:31:29.766Z,10.70
2019-05-15T01:36:31.157Z,8.37
2019-05-15T01:41:32.682Z,7.50
2019-05-15T01:46:34.106Z,9.87
2019-05-15T01:51:35.504Z,6.47
2019-05-15T01:56:38.695Z,8.63
2019-05-15T02:01:40.341Z,8.23
2019-05-15T02:06:41.865Z,8.67
2019-05-15T02:11:43.246Z,8.90
2019-05-15T02:16:44.768Z,6.13
2019-05-15T02:21:48.477Z,8.73
2019-05-15T02:26:49.841Z,10.93
2019-05-15T02:31:51.320Z,7.80
2019-05-15T02:36:52.824Z,7.70
2019-05-15T02:41:54.336Z,8.67
2019-05-15T02:46:58.595Z,8.03
2019-05-15T02:52:00.229Z,7.10
2019-05-15T02:57:02.115Z,8.70
2019-05-15T03:02:03.714Z,8.37
2019-05-15T03:07:05.253Z,8.77
2019-05-15T03:12:09.101Z,10.93
2019-05-15T03:17:10.165Z,8.50
2019-05-15T03:22:11.651Z,10.77
2019-05-15T03:27:13.135Z,8.17
2019-05-15T03:32:27.763Z,9.10
2019-05-15T03:37:22.038Z,8.97
2019-05-15T03:42:21.474Z,12.17
2019-05-15T03:47:22.892Z,9.17
2019-05-15T03:52:24.383Z,11.20
2019-05-15T03:57:25.959Z,9.13
2019-05-15T04:02:28.794Z,7.13
2019-05-15T04:07:30.608Z,9.83
2019-05-15T04:12:32.198Z,7.90
2019-05-15T04:17:33.695Z,9.27
2019-05-15T04:22:35.206Z,9.67
2019-05-15T04:27:39.053Z,7.90
2019-05-15T04:32:40.240Z,9.33
2019-05-15T04:37:41.808Z,9.67
2019-05-15T04:42:43.318Z,8.67
2019-05-15T04:47:44.824Z,9.63
2019-05-15T04:52:49.904Z,11.97
2019-05-15T04:57:50.267Z,11.43
2019-05-15T05:02:51.980Z,8.30
2019-05-15T05:07:53.527Z,8.57
2019-05-15T05:12:55.130Z,8.47
2019-05-15T05:17:58.575Z,9.53
2019-05-15T05:23:00.095Z,11.53
2019-05-15T05:28:01.600Z,11.50
2019-05-15T05:33:03.418Z,9.73
2019-05-15T05:38:04.890Z,10.63
2019-05-15T05:43:09.305Z,9.73
2019-05-15T05:48:09.963Z,8.50
2019-05-15T05:53:11.493Z,11.83
2019-05-15T05:58:13.061Z,8.77
2019-05-15T06:03:14.555Z,8.63
2019-05-15T06:08:19.141Z,8.80
2019-05-15T06:13:19.631Z,9.53
2019-05-15T06:18:21.147Z,12.97
2019-05-15T06:23:25.098Z,7.20
2019-05-15T06:28:28.686Z,8.03
2019-05-15T06:33:29.786Z,11.47
2019-05-15T06:38:31.283Z,8.77
2019-05-15T06:43:32.827Z,12.10
2019-05-15T06:48:34.438Z,6.23
2019-05-15T06:53:38.250Z,6.10
2019-05-15T06:58:39.352Z,5.77
2019-05-15T07:03:40.727Z,9.07
2019-05-15T07:08:42.248Z,6.47
2019-05-15T07:13:43.745Z,6.53
2019-05-15T07:18:45.281Z,12.30
2019-05-15T07:23:49.619Z,6.50
2019-05-15T07:28:51.091Z,11.43
2019-05-15T07:33:52.591Z,7.40
2019-05-15T07:38:54.106Z,5.93
2019-05-15T07:43:55.629Z,6.67
2019-05-15T07:48:58.379Z,8.93
2019-05-15T07:54:02.630Z,4.37
2019-05-15T07:59:03.624Z,8.27
2019-05-15T08:04:22.757Z,5.30
2019-05-15T08:09:08.933Z,3.83
2019-05-15T08:14:10.489Z,5.53
2019-05-15T08:19:12.045Z,7.20
2019-05-15T08:24:13.449Z,5.25
2019-05-15T08:29:18.569Z,3.22
2019-05-15T08:34:19.605Z,3.80
2019-05-15T08:39:21.293Z,9.60
2019-05-15T08:44:23.028Z,4.72
2019-05-15T08:49:24.587Z,5.37
2019-05-15T08:54:25.998Z,4.72
2019-05-15T08:59:29.438Z,4.53
2019-05-15T09:04:34.786Z,5.42
2019-05-15T09:09:34.687Z,2.47
2019-05-15T09:14:38.023Z,4.25
2019-05-15T09:19:39.691Z,5.53
2019-05-15T09:24:41.212Z,3.58
2019-05-15T09:29:42.650Z,3.35
2019-05-15T09:34:50.878Z,3.30
2019-05-15T09:39:48.973Z,3.15
2019-05-15T09:44:50.727Z,3.90
2019-05-15T09:49:52.263Z,5.10
2019-05-15T09:54:53.873Z,1.98
2019-05-15T09:59:55.491Z,2.83
2019-05-15T10:05:05.891Z,2.30
2019-05-15T10:10:00.582Z,3.52
2019-05-15T10:15:02.227Z,2.52
2019-05-15T10:20:03.882Z,3.70
2019-05-15T10:25:08.135Z,3.50
2019-05-15T10:30:09.328Z,2.33
2019-05-15T10:35:24.371Z,2.30
2019-05-15T10:40:14.906Z,4.40
2019-05-15T10:45:19.091Z,5.10
2019-05-15T10:50:20.247Z,3.85
2019-05-15T10:55:21.807Z,2.30
2019-05-15T11:00:23.345Z,1.67
2019-05-15T11:05:40.219Z,2.20
2019-05-15T11:10:29.021Z,2.65
2019-05-15T11:15:30.702Z,2.40
2019-05-15T11:20:32.206Z,5.20
2019-05-15T11:25:33.645Z,2.22
2019-05-15T11:30:35.179Z,2.05
2019-05-15T11:35:39.074Z,1.92
2019-05-15T11:40:40.144Z,2.05
2019-05-15T11:45:41.641Z,3.12
2019-05-15T11:50:43.154Z,5.30
2019-05-15T11:55:44.697Z,4.83
2019-05-15T12:00:48.772Z,2.92
2019-05-15T12:05:49.739Z,3.35
2019-05-15T12:10:51.284Z,3.58
2019-05-15T12:15:52.944Z,2.25
2019-05-15T12:20:54.648Z,2.47
2019-05-15T12:25:59.340Z,5.08
2019-05-15T12:30:59.996Z,2.15
2019-05-15T12:36:01.576Z,1.95
2019-05-15T13:01:18.387Z,1.95
2019-05-15T13:06:20.751Z,3.72
2019-05-15T13:11:22.324Z,4.10
2019-05-15T13:16:23.844Z,5.12
2019-05-15T13:21:25.370Z,5.83
2019-05-15T13:26:27.235Z,3.62
2019-05-15T13:31:28.970Z,4.33
2019-05-15T13:36:30.523Z,2.55
2019-05-15T13:41:32.022Z,2.95
2019-05-15T13:46:33.537Z,4.55
2019-05-15T13:51:35.117Z,4.45
2019-05-15T13:56:38.194Z,3.60
2019-05-15T14:01:40.071Z,4.10
2019-05-15T14:06:41.592Z,5.33
2019-05-15T14:11:43.008Z,3.27
2019-05-15T14:16:44.451Z,3.42
2019-05-15T14:21:52.064Z,2.52
2019-05-15T14:26:53.654Z,2.90
2019-05-15T14:31:55.121Z,2.33
2019-05-15T14:36:58.676Z,7.85
2019-05-15T14:42:00.543Z,3.67
2019-05-15T14:47:01.964Z,3.00
2019-05-15T14:52:08.821Z,3.02
2019-05-15T14:57:08.696Z,3.87
2019-05-15T15:02:10.577Z,3.45
2019-05-15T15:07:12.242Z,2.37
2019-05-15T15:12:13.839Z,4.75
2019-05-15T15:17:16.465Z,2.92
2019-05-15T15:22:18.041Z,4.28
2019-05-15T15:27:19.621Z,3.02
2019-05-15T15:32:21.142Z,3.72
2019-05-15T15:37:22.717Z,3.83
2019-05-15T15:42:24.516Z,4.78
2019-05-15T15:47:28.154Z,4.05
2019-05-15T15:52:29.990Z,5.75
2019-05-15T15:57:31.437Z,2.90
2019-05-15T16:02:32.942Z,7.28
2019-05-15T16:07:34.618Z,3.37
2019-05-15T16:12:38.463Z,10.98
2019-05-15T16:17:39.528Z,3.22
2019-05-15T16:22:43.131Z,3.40
2019-05-15T16:27:44.760Z,3.58
2019-05-15T16:32:46.260Z,6.33
2019-05-15T16:37:49.228Z,2.62
2019-05-15T16:42:52.146Z,3.77
2019-05-15T16:47:53.792Z,5.33
2019-05-15T16:52:58.402Z,4.85
2019-05-15T16:57:59.877Z,9.03
2019-05-15T17:03:13.542Z,3.87
2019-05-15T17:08:04.901Z,2.42
2019-05-15T17:13:08.486Z,5.42
2019-05-15T17:18:09.807Z,4.70
2019-05-15T17:23:11.399Z,3.00
2019-05-15T17:28:13.217Z,9.40
2019-05-15T17:33:14.764Z,3.83
2019-05-15T17:38:18.260Z,3.52
2019-05-15T17:43:19.724Z,3.33
2019-05-15T17:48:21.308Z,3.77
2019-05-15T17:53:22.648Z,3.80
2019-05-15T17:58:24.356Z,6.28
2019-05-15T18:03:28.797Z,4.55
2019-05-15T18:08:30.086Z,2.92
2019-05-15T18:13:31.892Z,3.27
2019-05-15T18:18:33.432Z,3.70
2019-05-15T18:23:35.002Z,3.05
2019-05-15T18:28:38.783Z,8.40
2019-05-15T18:33:53.049Z,6.60
2019-05-15T18:38:43.715Z,3.80
2019-05-15T18:43:48.284Z,6.12
2019-05-15T18:48:49.767Z,7.10
2019-05-15T18:53:51.271Z,3.70
2019-05-15T18:58:52.795Z,3.15
2019-05-15T19:03:54.297Z,8.88
2019-05-15T19:08:55.960Z,22.85
2019-05-15T19:13:58.899Z,8.98
2019-05-15T19:19:00.799Z,8.08
2019-05-15T19:24:02.677Z,10.28
2019-05-15T19:29:04.182Z,8.48
2019-05-15T19:34:05.752Z,5.20
2019-05-15T19:39:08.053Z,5.92
2019-05-15T19:44:09.825Z,7.67
2019-05-15T19:49:12.392Z,4.97
2019-05-15T19:54:13.836Z,7.42
2019-05-15T19:59:15.298Z,6.60
2019-05-15T20:04:18.568Z,5.28
2019-05-15T20:09:20.205Z,7.05
2019-05-15T20:14:21.740Z,6.65
2019-05-15T20:19:23.344Z,5.67
2019-05-15T20:24:24.853Z,6.00
2019-05-15T20:29:28.822Z,5.83
2019-05-15T20:34:29.983Z,6.10
2019-05-15T20:39:31.509Z,8.60
2019-05-15T20:44:33.057Z,7.70
2019-05-15T20:49:34.670Z,7.75
2019-05-15T20:54:38.642Z,6.40
2019-05-15T20:59:39.566Z,9.23
2019-05-15T21:04:41.117Z,6.77
2019-05-15T21:09:42.651Z,6.90
2019-05-15T21:14:44.291Z,9.17
2019-05-15T21:19:45.801Z,9.93
2019-05-15T21:24:47.139Z,9.97
2019-05-15T21:29:49.124Z,7.53
2019-05-15T21:34:50.912Z,7.37
2019-05-15T21:39:52.451Z,8.23
2019-05-15T21:44:53.972Z,8.30
2019-05-15T21:49:55.816Z,5.43
2019-05-15T21:54:59.401Z,7.80
2019-05-15T22:00:00.824Z,6.90
2019-05-15T22:05:02.837Z,8.07
2019-05-15T22:10:04.358Z,5.10
2019-05-15T22:15:05.897Z,5.43
2019-05-15T22:20:09.249Z,6.53
2019-05-15T22:25:11.613Z,6.00
2019-05-15T22:30:13.117Z,8.20
2019-05-15T22:35:15.014Z,7.30
2019-05-15T22:40:18.313Z,7.57
2019-05-15T22:45:19.747Z,8.27
2019-05-15T22:50:21.242Z,9.03
2019-05-15T22:55:22.760Z,9.70
2019-05-15T23:00:24.221Z,6.60
2019-05-15T23:05:29.362Z,7.13
2019-05-15T23:10:29.464Z,8.47
2019-05-15T23:15:31.184Z,6.60
2019-05-15T23:20:32.680Z,10.07
2019-05-15T23:25:34.119Z,6.83
2019-05-15T23:30:35.677Z,7.07
2019-05-15T23:35:38.923Z,4.83
2019-05-15T23:40:40.631Z,8.87
2019-05-15T23:45:42.101Z,10.40
2019-05-15T23:50:43.534Z,6.90
2019-05-15T23:55:44.930Z,8.40
